createdAt,value
2019-05-10T00:02:13.178Z,95.00
2019-05-10T00:04:59.116Z,94.20
2019-05-10T00:07:44.999Z,95.10
2019-05-10T00:10:13.163Z,95.20
2019-05-10T00:12:52.819Z,94.80
2019-05-10T00:15:23.066Z,94.20
2019-05-10T00:17:51.164Z,92.90
2019-05-10T00:20:19.004Z,91.90
2019-05-10T00:22:47.125Z,92.90
2019-05-10T00:25:14.820Z,92.80
2019-05-10T00:27:42.491Z,93.40
2019-05-10T00:30:10.533Z,93.90
2019-05-10T00:32:38.536Z,92.80
2019-05-10T00:35:06.664Z,91.40
2019-05-10T00:37:34.460Z,92.00
2019-05-10T00:40:02.922Z,91.90
2019-05-10T00:42:30.608Z,91.70
2019-05-10T00:44:58.419Z,91.20
2019-05-10T00:47:26.129Z,91.50
2019-05-10T00:49:53.838Z,91.20
2019-05-10T00:52:21.619Z,90.30
2019-05-10T00:54:49.517Z,90.30
2019-05-10T00:57:17.319Z,90.40
2019-05-10T00:59:44.999Z,90.60
2019-05-10T01:02:12.999Z,90.10
2019-05-10T01:04:40.780Z,90.00
2019-05-10T01:07:08.459Z,89.70
2019-05-10T01:09:36.442Z,89.00
2019-05-10T01:12:05.576Z,89.80
2019-05-10T01:14:33.247Z,90.10
2019-05-10T01:17:01.074Z,90.40
2019-05-10T01:19:28.801Z,89.30
2019-05-10T01:21:56.631Z,90.20
2019-05-10T01:24:24.352Z,89.30
2019-05-10T01:26:52.060Z,88.50
2019-05-10T01:29:33.141Z,89.20
2019-05-10T01:32:01.063Z,89.10
2019-05-10T01:34:28.744Z,86.80
2019-05-10T01:36:56.550Z,86.70
2019-05-10T01:39:24.560Z,85.20
2019-05-10T01:41:52.687Z,86.70
2019-05-10T01:44:20.499Z,85.40
2019-05-10T01:46:48.216Z,85.40
2019-05-10T01:49:15.901Z,85.30
2019-05-10T01:51:43.700Z,87.30
2019-05-10T01:54:11.474Z,88.10
2019-05-10T01:56:39.406Z,87.40
2019-05-10T01:59:07.098Z,88.00
2019-05-10T02:01:34.809Z,88.90
2019-05-10T02:04:02.637Z,89.00
2019-05-10T02:06:30.356Z,87.50
2019-05-10T02:08:58.145Z,87.00
2019-05-10T02:11:25.928Z,88.20
2019-05-10T02:13:53.732Z,88.00
2019-05-10T02:16:21.572Z,86.40
2019-05-10T02:18:49.267Z,87.60
2019-05-10T02:21:16.970Z,87.90
2019-05-10T02:23:44.760Z,89.20
2019-05-10T02:26:12.468Z,88.20
2019-05-10T02:28:40.304Z,86.20
2019-05-10T02:31:08.086Z,87.30
2019-05-10T02:33:36.008Z,87.60
2019-05-10T02:36:03.755Z,88.60
2019-05-10T02:38:31.494Z,87.60
2019-05-10T02:40:59.803Z,86.30
2019-05-10T02:43:27.602Z,87.70
2019-05-10T02:45:56.233Z,87.10
2019-05-10T02:48:24.059Z,87.30
2019-05-10T02:50:52.017Z,86.20
2019-05-10T02:53:19.822Z,88.30
2019-05-10T02:55:48.271Z,87.70
2019-05-10T02:58:16.178Z,87.60
2019-05-10T03:00:45.965Z,87.40
2019-05-10T03:03:16.183Z,87.60
2019-05-10T03:05:48.515Z,88.20
2019-05-10T03:08:14.842Z,87.00
2019-05-10T03:10:56.190Z,85.10
2019-05-10T03:13:29.455Z,85.80
2019-05-10T03:16:02.486Z,86.60
2019-05-10T03:18:31.335Z,85.30
2019-05-10T03:21:00.062Z,85.20
2019-05-10T03:23:28.361Z,84.30
2019-05-10T03:25:56.186Z,82.30
2019-05-10T03:28:24.074Z,81.70
2019-05-10T03:30:51.974Z,82.30
2019-05-10T03:33:19.892Z,82.60
2019-05-10T03:35:47.613Z,82.40
2019-05-10T03:38:15.499Z,80.00
2019-05-10T03:40:43.464Z,80.30
2019-05-10T03:43:11.352Z,80.30
2019-05-10T03:45:39.187Z,79.90
2019-05-10T03:48:07.089Z,78.70
2019-05-10T03:50:34.772Z,77.00
2019-05-10T03:53:02.502Z,73.70
2019-05-10T03:55:30.480Z,75.20
2019-05-10T03:57:58.274Z,76.20
2019-05-10T04:00:26.020Z,75.90
2019-05-10T04:02:53.840Z,74.80
2019-05-10T04:05:21.511Z,75.30
2019-05-10T04:07:49.195Z,77.40
2019-05-10T04:10:20.706Z,77.10
2019-05-10T04:12:46.783Z,77.90
2019-05-10T04:15:14.915Z,78.00
2019-05-10T04:17:42.593Z,79.40
2019-05-10T04:20:11.872Z,81.60
2019-05-10T04:22:39.816Z,81.30
2019-05-10T04:25:08.136Z,81.50
2019-05-10T04:27:35.843Z,81.50
2019-05-10T04:30:04.281Z,80.30
2019-05-10T04:32:32.005Z,80.10
2019-05-10T04:34:59.982Z,81.40
2019-05-10T04:37:27.779Z,82.80
2019-05-10T04:39:55.467Z,81.10
2019-05-10T04:42:23.289Z,80.30
2019-05-10T04:44:53.530Z,78.50
2019-05-10T04:47:20.605Z,77.00
2019-05-10T04:49:48.457Z,77.50
2019-05-10T04:52:16.198Z,76.10
2019-05-10T04:54:43.963Z,76.20
2019-05-10T04:57:11.791Z,76.20
2019-05-10T04:59:39.661Z,74.20
2019-05-10T05:02:07.365Z,75.30
2019-05-10T05:04:35.090Z,74.60
2019-05-10T05:07:02.999Z,74.20
2019-05-10T05:09:31.097Z,74.10
2019-05-10T05:11:58.857Z,73.70
2019-05-10T05:14:26.588Z,74.00
2019-05-10T05:16:54.454Z,73.10
2019-05-10T05:19:22.157Z,73.20
2019-05-10T05:21:49.848Z,71.80
2019-05-10T05:24:23.184Z,72.30
2019-05-10T05:26:47.357Z,72.60
2019-05-10T05:29:15.049Z,73.20
2019-05-10T05:31:42.997Z,73.90
2019-05-10T05:34:10.716Z,76.60
2019-05-10T05:36:38.423Z,75.50
2019-05-10T05:39:07.735Z,76.40
2019-05-10T05:41:47.604Z,75.40
2019-05-10T05:44:05.106Z,73.80
2019-05-10T05:46:32.965Z,73.20
2019-05-10T05:49:00.649Z,73.30
2019-05-10T05:51:28.365Z,72.50
2019-05-10T05:53:56.216Z,72.20
2019-05-10T05:56:24.089Z,71.10
2019-05-10T05:58:51.808Z,71.10
2019-05-10T06:01:26.532Z,70.30
2019-05-10T06:03:49.260Z,69.60
2019-05-10T06:06:21.800Z,68.80
2019-05-10T06:08:46.861Z,69.10
2019-05-10T06:11:14.555Z,65.90
2019-05-10T06:13:42.442Z,67.70
2019-05-10T06:16:12.720Z,68.80
2019-05-10T06:18:41.748Z,68.70
2019-05-10T06:21:09.632Z,68.20
2019-05-10T06:23:37.331Z,68.40
2019-05-10T06:26:06.295Z,66.90
2019-05-10T06:28:57.630Z,65.40
2019-05-10T06:31:04.290Z,66.30
2019-05-10T06:33:32.368Z,64.90
2019-05-10T06:36:00.063Z,59.60
2019-05-10T06:38:27.969Z,58.80
2019-05-10T06:40:55.788Z,57.50
2019-05-10T06:43:23.472Z,58.70
2019-05-10T06:45:52.589Z,57.40
2019-05-10T06:48:26.987Z,50.40
2019-05-10T06:50:50.850Z,52.00
2019-05-10T06:53:18.538Z,52.30
2019-05-10T06:55:46.600Z,47.90
2019-05-10T06:58:14.415Z,51.20
2019-05-10T07:00:44.713Z,50.10
2019-05-10T07:03:11.845Z,50.70
2019-05-10T07:05:39.575Z,50.40
2019-05-10T07:08:15.052Z,50.60
2019-05-10T07:10:37.097Z,48.20
2019-05-10T07:13:06.681Z,48.80
2019-05-10T07:15:35.643Z,49.00
2019-05-10T07:18:04.191Z,49.40
2019-05-10T07:20:31.873Z,47.50
2019-05-10T07:23:00.057Z,40.70
2019-05-10T07:25:29.338Z,43.40
2019-05-10T07:27:57.207Z,46.10
2019-05-10T07:30:34.027Z,43.80
2019-05-10T07:33:02.331Z,40.40
2019-05-10T07:35:36.907Z,39.10
2019-05-10T07:38:01.519Z,41.00
2019-05-10T07:40:29.375Z,41.90
2019-05-10T07:42:57.084Z,39.40
2019-05-10T07:45:25.499Z,42.60
2019-05-10T07:47:54.713Z,42.40
2019-05-10T07:50:22.582Z,44.60
2019-05-10T07:52:50.270Z,44.40
2019-05-10T07:55:28.096Z,46.40
2019-05-10T07:57:47.707Z,43.30
2019-05-10T08:00:15.787Z,39.90
2019-05-10T08:02:44.375Z,34.60
2019-05-10T08:05:15.286Z,27.30
2019-05-10T08:07:43.100Z,25.80
2019-05-10T08:10:11.068Z,23.50
2019-05-10T08:12:41.397Z,21.50
2019-05-10T08:15:10.085Z,21.70
2019-05-10T08:17:43.186Z,19.70
2019-05-10T08:20:20.419Z,22.30
2019-05-10T08:22:46.133Z,24.00
2019-05-10T08:25:15.387Z,24.60
2019-05-10T08:27:50.189Z,25.30
2019-05-10T08:30:25.526Z,28.10
2019-05-10T08:32:46.123Z,31.40
2019-05-10T08:35:17.130Z,33.00
2019-05-10T08:37:43.921Z,35.20
2019-05-10T08:40:12.792Z,36.50
2019-05-10T08:42:48.600Z,36.00
2019-05-10T08:45:12.559Z,36.90
2019-05-10T08:47:42.713Z,36.50
2019-05-10T08:50:26.425Z,37.00
2019-05-10T08:52:42.320Z,37.10
2019-05-10T08:55:12.112Z,37.40
2019-05-10T08:57:44.381Z,37.90
2019-05-10T09:00:09.316Z,38.30
2019-05-10T09:02:37.223Z,38.00
2019-05-10T09:05:05.403Z,35.20
2019-05-10T09:07:37.002Z,35.30
2019-05-10T09:10:02.708Z,36.60
2019-05-10T09:12:32.818Z,33.40
2019-05-10T09:15:06.594Z,32.80
2019-05-10T09:17:29.818Z,32.30
2019-05-10T09:19:57.644Z,31.00
2019-05-10T09:22:32.318Z,29.20
2019-05-10T09:24:56.345Z,29.90
2019-05-10T09:27:29.098Z,28.70
2019-05-10T09:29:53.829Z,27.20
2019-05-10T09:32:28.534Z,27.60
2019-05-10T09:34:54.045Z,26.80
2019-05-10T09:37:22.858Z,27.10
2019-05-10T09:39:54.883Z,26.80
2019-05-10T09:42:26.761Z,27.10
2019-05-10T09:44:52.219Z,27.00
2019-05-10T09:47:22.202Z,27.50
2019-05-10T09:49:56.545Z,28.00
2019-05-10T09:52:19.342Z,30.40
2019-05-10T09:54:49.374Z,30.50
2019-05-10T09:57:17.440Z,29.60
2019-05-10T09:59:47.024Z,30.20
2019-05-10T10:02:18.249Z,31.50
2019-05-10T10:04:47.222Z,31.20
2019-05-10T10:07:18.764Z,31.90
2019-05-10T10:09:45.646Z,33.00
2019-05-10T10:12:14.151Z,34.10
2019-05-10T10:14:43.304Z,34.50
2019-05-10T10:17:11.531Z,34.50
2019-05-10T10:19:40.725Z,33.00
2019-05-10T10:22:11.101Z,35.90
2019-05-10T10:24:40.985Z,38.10
2019-05-10T10:27:08.043Z,38.40
2019-05-10T10:29:38.757Z,36.80
2019-05-10T10:32:07.945Z,37.90
2019-05-10T10:34:38.776Z,34.70
2019-05-10T10:37:07.743Z,37.30
2019-05-10T10:39:37.188Z,36.90
2019-05-10T10:42:08.840Z,34.70
2019-05-10T10:44:36.941Z,32.30
2019-05-10T10:47:04.301Z,31.90
2019-05-10T10:49:32.178Z,31.50
2019-05-10T10:52:00.050Z,30.90
2019-05-10T10:54:33.797Z,30.40
2019-05-10T10:56:59.679Z,30.30
2019-05-10T10:59:28.367Z,29.80
2019-05-10T11:02:25.145Z,30.10
2019-05-10T11:04:25.754Z,30.00
2019-05-10T11:07:09.242Z,30.60
2019-05-10T11:09:23.628Z,31.80
2019-05-10T11:11:52.740Z,30.60
2019-05-10T11:14:20.710Z,31.30
2019-05-10T11:16:52.913Z,31.20
2019-05-10T11:19:20.350Z,32.10
2019-05-10T11:21:47.949Z,34.20
2019-05-10T11:24:18.333Z,36.70
2019-05-10T11:26:47.159Z,36.20
2019-05-10T11:29:25.513Z,37.20
2019-05-10T11:31:48.553Z,37.00
2019-05-10T11:34:14.354Z,34.10
2019-05-10T11:36:46.146Z,34.70
2019-05-10T11:39:25.298Z,33.60
2019-05-10T11:41:41.555Z,29.60
2019-05-10T11:44:11.920Z,29.60
2019-05-10T11:46:41.499Z,29.50
2019-05-10T11:49:10.683Z,29.00
2019-05-10T11:51:41.174Z,29.70
2019-05-10T11:54:08.475Z,28.90
2019-05-10T11:56:36.184Z,28.80
2019-05-10T11:59:05.424Z,30.70
2019-05-10T12:01:33.727Z,29.50
2019-05-10T12:04:02.110Z,29.20
2019-05-10T12:06:31.935Z,29.60
2019-05-10T12:09:03.801Z,29.70
2019-05-10T12:14:02.438Z,28.10
2019-05-10T12:16:33.108Z,29.70
2019-05-10T12:19:10.581Z,29.50
2019-05-10T12:21:32.247Z,29.50
2019-05-10T12:24:10.312Z,29.90
2019-05-10T12:26:27.643Z,29.00
2019-05-10T12:29:02.690Z,28.90
2019-05-10T12:31:27.466Z,27.50
2019-05-10T12:34:00.474Z,27.60
2019-05-10T12:36:27.507Z,28.40
2019-05-10T12:38:56.155Z,27.40
2019-05-10T12:41:24.458Z,29.40
2019-05-10T12:44:02.932Z,30.40
2019-05-10T12:46:22.015Z,32.00
2019-05-10T12:48:51.701Z,34.50
2019-05-10T12:51:21.146Z,37.10
2019-05-10T12:53:52.111Z,39.70
2019-05-10T12:56:18.837Z,43.80
2019-05-10T12:58:56.826Z,45.40
2019-05-10T13:01:16.813Z,46.80
2019-05-10T13:03:44.504Z,48.30
2019-05-10T13:06:12.208Z,48.90
2019-05-10T13:08:40.124Z,48.60
2019-05-10T13:11:08.030Z,49.20
2019-05-10T13:13:35.914Z,48.20
2019-05-10T13:16:09.353Z,47.20
2019-05-10T13:18:49.799Z,47.00
2019-05-10T13:21:03.116Z,45.90
2019-05-10T13:23:32.679Z,46.20
2019-05-10T13:26:00.868Z,46.50
2019-05-10T13:28:30.873Z,46.40
2019-05-10T13:30:59.989Z,45.30
2019-05-10T13:33:29.454Z,43.20
2019-05-10T13:35:58.620Z,43.50
2019-05-10T13:38:26.918Z,43.90
2019-05-10T13:40:54.738Z,41.70
2019-05-10T13:43:26.629Z,42.00
2019-05-10T13:45:52.901Z,38.90
2019-05-10T13:48:25.216Z,33.80
2019-05-10T13:50:52.176Z,35.90
2019-05-10T13:53:22.929Z,33.00
2019-05-10T13:55:49.622Z,32.70
2019-05-10T13:58:17.349Z,30.60
2019-05-10T14:00:45.438Z,26.70
2019-05-10T14:03:13.585Z,28.90
2019-05-10T14:05:43.345Z,28.40
2019-05-10T14:08:11.061Z,29.70
2019-05-10T14:10:38.772Z,28.60
2019-05-10T14:13:06.666Z,26.00
2019-05-10T14:15:34.379Z,25.80
2019-05-10T14:18:02.192Z,26.80
2019-05-10T14:20:30.081Z,23.30
2019-05-10T14:22:59.035Z,27.30
2019-05-10T14:25:29.549Z,26.60
2019-05-10T14:27:56.992Z,26.10
2019-05-10T14:30:24.860Z,25.90
2019-05-10T14:32:52.823Z,24.90
2019-05-10T14:35:22.658Z,24.80
2019-05-10T14:37:50.722Z,21.90
2019-05-10T14:40:27.576Z,25.10
2019-05-10T14:42:48.765Z,23.50
2019-05-10T14:45:16.453Z,24.40
2019-05-10T14:47:47.808Z,26.10
2019-05-10T14:50:19.336Z,27.50
2019-05-10T14:52:45.134Z,26.50
2019-05-10T14:55:13.122Z,27.60
2019-05-10T14:57:41.995Z,25.80
2019-05-10T15:00:10.415Z,24.40
2019-05-10T15:02:38.166Z,24.50
2019-05-10T15:05:08.895Z,23.80
2019-05-10T15:07:36.217Z,25.70
2019-05-10T15:10:04.355Z,24.90
2019-05-10T15:12:32.061Z,26.50
2019-05-10T15:14:59.953Z,26.60
2019-05-10T15:17:30.337Z,27.40
2019-05-10T15:20:00.133Z,27.80
2019-05-10T15:22:27.446Z,26.60
2019-05-10T15:24:57.105Z,27.10
2019-05-10T15:27:24.884Z,27.60
2019-05-10T15:29:52.754Z,26.40
2019-05-10T15:32:20.505Z,25.80
2019-05-10T15:35:05.163Z,27.10
2019-05-10T15:37:18.154Z,26.70
2019-05-10T15:39:47.035Z,27.10
2019-05-10T15:42:14.974Z,26.70
2019-05-10T15:44:42.788Z,25.80
2019-05-10T15:47:14.517Z,23.70
2019-05-10T15:49:40.166Z,23.40
2019-05-10T15:52:17.470Z,22.60
2019-05-10T15:54:44.001Z,22.10
2019-05-10T15:57:07.387Z,21.10
2019-05-10T15:59:35.058Z,22.50
2019-05-10T16:02:02.869Z,22.30
2019-05-10T16:04:30.689Z,22.00
2019-05-10T16:06:58.430Z,22.60
2019-05-10T16:09:26.239Z,23.00
2019-05-10T16:11:56.007Z,21.10
2019-05-10T16:14:23.563Z,21.90
2019-05-10T16:16:51.760Z,22.80
2019-05-10T16:19:20.328Z,17.70
2019-05-10T16:21:52.248Z,20.80
2019-05-10T16:24:25.528Z,20.80
2019-05-10T16:26:47.701Z,19.30
2019-05-10T16:29:15.629Z,21.00
2019-05-10T16:31:43.442Z,19.10
2019-05-10T16:34:11.166Z,19.90
2019-05-10T16:36:39.422Z,21.10
2019-05-10T16:39:07.329Z,20.20
2019-05-10T16:41:35.044Z,20.80
2019-05-10T16:44:02.787Z,19.00
2019-05-10T16:46:30.738Z,18.40
2019-05-10T16:48:58.483Z,21.20
2019-05-10T16:51:26.490Z,21.80
2019-05-10T16:53:54.200Z,20.90
2019-05-10T16:56:21.976Z,20.50
2019-05-10T16:58:53.139Z,20.70
2019-05-10T17:01:24.962Z,20.20
2019-05-10T17:03:51.084Z,21.30
2019-05-10T17:06:19.054Z,18.70
2019-05-10T17:08:46.799Z,19.60
2019-05-10T17:11:14.681Z,20.40
2019-05-10T17:13:43.236Z,19.90
2019-05-10T17:16:16.939Z,19.70
2019-05-10T17:18:44.208Z,18.90
2019-05-10T17:21:11.938Z,20.10
2019-05-10T17:23:41.650Z,20.90
2019-05-10T17:26:09.506Z,19.30
2019-05-10T17:28:37.442Z,20.60
2019-05-10T17:31:07.634Z,18.40
2019-05-10T17:33:36.854Z,19.30
2019-05-10T17:36:08.318Z,19.50
2019-05-10T17:38:34.674Z,19.90
2019-05-10T17:41:02.650Z,20.00
2019-05-10T17:43:30.382Z,19.80
2019-05-10T17:45:58.140Z,19.20
2019-05-10T17:48:26.161Z,19.10
2019-05-10T17:50:54.249Z,19.20
2019-05-10T17:53:24.160Z,19.30
2019-05-10T17:55:56.461Z,18.70
2019-05-10T17:58:22.040Z,20.10
2019-05-10T18:00:49.769Z,20.10
2019-05-10T18:03:17.682Z,20.40
2019-05-10T18:05:50.197Z,20.70
2019-05-10T18:08:16.813Z,20.80
2019-05-10T18:10:44.673Z,21.60
2019-05-10T18:13:12.503Z,23.80
2019-05-10T18:15:40.413Z,23.90
2019-05-10T18:18:10.138Z,24.40
2019-05-10T18:20:42.211Z,24.40
2019-05-10T18:23:07.518Z,25.60
2019-05-10T18:25:35.600Z,26.80
2019-05-10T18:28:03.518Z,26.10
2019-05-10T18:30:31.445Z,26.50
2019-05-10T18:32:59.238Z,26.70
2019-05-10T18:35:28.914Z,26.50
2019-05-10T18:37:59.631Z,26.30
2019-05-10T18:40:31.759Z,26.30
2019-05-10T18:42:57.844Z,26.40
2019-05-10T18:45:28.566Z,27.80
2019-05-10T18:47:56.089Z,26.80
2019-05-10T18:50:25.055Z,26.90
2019-05-10T18:52:52.762Z,27.10
2019-05-10T18:55:22.668Z,27.60
2019-05-10T18:57:52.576Z,28.60
2019-05-10T19:00:23.261Z,29.10
2019-05-10T19:02:55.437Z,30.20
2019-05-10T19:05:25.082Z,30.30
2019-05-10T19:08:02.730Z,30.20
2019-05-10T19:10:21.006Z,30.30
2019-05-10T19:12:59.904Z,32.00
2019-05-10T19:15:18.494Z,32.10
2019-05-10T19:17:47.285Z,31.50
2019-05-10T19:20:16.252Z,33.00
2019-05-10T19:22:44.904Z,33.40
2019-05-10T19:25:14.375Z,33.70
2019-05-10T19:27:44.631Z,34.50
2019-05-10T19:30:12.383Z,35.80
2019-05-10T19:32:40.183Z,35.20
2019-05-10T19:35:08.065Z,34.40
2019-05-10T19:37:35.996Z,34.60
2019-05-10T19:40:04.539Z,35.10
2019-05-10T19:42:37.351Z,35.40
2019-05-10T19:45:02.374Z,35.50
2019-05-10T19:47:30.112Z,36.00
2019-05-10T19:49:57.870Z,37.30
2019-05-10T19:52:27.857Z,37.50
2019-05-10T19:54:57.579Z,37.80
2019-05-10T19:57:25.642Z,38.00
2019-05-10T19:59:54.834Z,38.80
2019-05-10T20:02:23.650Z,39.40
2019-05-10T20:04:51.589Z,38.10
2019-05-10T20:07:19.498Z,38.50
2019-05-10T20:09:47.272Z,39.80
2019-05-10T20:12:15.310Z,40.30
2019-05-10T20:14:46.345Z,41.90
2019-05-10T20:17:14.141Z,41.30
2019-05-10T20:19:42.096Z,41.90
2019-05-10T20:22:10.064Z,43.90
2019-05-10T20:24:37.921Z,43.60
2019-05-10T20:27:07.360Z,43.80
2019-05-10T20:29:35.192Z,44.90
2019-05-10T20:32:03.095Z,44.10
2019-05-10T20:34:32.614Z,43.50
2019-05-10T20:37:00.331Z,45.30
2019-05-10T20:39:28.209Z,44.80
2019-05-10T20:41:56.035Z,46.00
2019-05-10T20:44:23.813Z,45.30
2019-05-10T20:46:51.762Z,45.10
2019-05-10T20:49:19.550Z,45.40
2019-05-10T20:51:47.404Z,46.60
2019-05-10T20:54:15.141Z,46.40
2019-05-10T20:56:42.880Z,46.70
2019-05-10T20:59:10.788Z,47.20
2019-05-10T21:01:38.608Z,46.60
2019-05-10T21:04:06.572Z,47.20
2019-05-10T21:06:34.532Z,46.80
2019-05-10T21:09:05.061Z,47.50
2019-05-10T21:11:35.939Z,47.70
2019-05-10T21:14:05.908Z,47.50
2019-05-10T21:16:34.427Z,48.50
2019-05-10T21:19:02.203Z,48.60
2019-05-10T21:21:30.137Z,50.10
2019-05-10T21:23:58.985Z,50.20
2019-05-10T21:26:27.193Z,50.70
2019-05-10T21:28:55.127Z,51.20
2019-05-10T21:31:22.900Z,49.50
2019-05-10T21:33:51.949Z,50.10
2019-05-10T21:36:19.793Z,50.30
2019-05-10T21:38:48.745Z,50.40
2019-05-10T21:41:21.985Z,50.80
2019-05-10T21:43:49.797Z,52.20
2019-05-10T21:46:17.978Z,51.40
2019-05-10T21:48:45.782Z,50.70
2019-05-10T21:51:13.606Z,51.00
2019-05-10T21:53:41.511Z,51.30
2019-05-10T21:56:09.399Z,52.00
2019-05-10T21:58:37.216Z,52.20
2019-05-10T22:01:05.204Z,52.30
2019-05-10T22:03:34.241Z,51.50
2019-05-10T22:06:02.296Z,51.30
2019-05-10T22:08:30.029Z,51.90
2019-05-10T22:10:58.037Z,51.90
2019-05-10T22:13:25.986Z,51.10
2019-05-10T22:15:53.881Z,52.10
2019-05-10T22:18:21.824Z,52.00
2019-05-10T22:20:51.025Z,53.20
2019-05-10T22:23:18.832Z,54.00
2019-05-10T22:25:46.660Z,54.00
2019-05-10T22:28:14.549Z,53.80
2019-05-10T22:30:42.739Z,54.00
2019-05-10T22:33:10.590Z,54.50
2019-05-10T22:35:39.677Z,55.20
2019-05-10T22:38:08.561Z,55.10
2019-05-10T22:40:36.577Z,54.90
2019-05-10T22:43:04.532Z,55.80
2019-05-10T22:45:32.413Z,54.70
2019-05-10T22:48:00.193Z,55.60
2019-05-10T22:50:29.750Z,55.70
2019-05-10T22:52:57.776Z,55.90
2019-05-10T22:55:25.508Z,55.50
2019-05-10T22:57:55.114Z,55.90
2019-05-10T23:00:23.168Z,56.50
2019-05-10T23:02:50.899Z,56.10
2019-05-10T23:05:20.653Z,56.40
2019-05-10T23:07:49.796Z,56.00
2019-05-10T23:10:17.790Z,56.60
2019-05-10T23:12:45.488Z,56.70
2019-05-10T23:15:14.117Z,56.80
2019-05-10T23:17:41.852Z,56.60
2019-05-10T23:20:10.199Z,56.50
2019-05-10T23:22:38.351Z,56.90
2019-05-10T23:25:06.497Z,56.60
2019-05-10T23:27:34.398Z,55.50
2019-05-10T23:30:02.222Z,56.40
2019-05-10T23:32:29.987Z,55.50
2019-05-10T23:34:57.925Z,56.50
2019-05-10T23:37:25.681Z,56.90
2019-05-10T23:39:54.762Z,57.20
2019-05-10T23:42:22.965Z,57.30
2019-05-10T23:44:50.762Z,57.40
2019-05-10T23:47:18.576Z,56.90
2019-05-10T23:49:48.582Z,58.10
2019-05-10T23:52:17.710Z,57.80
2019-05-10T23:54:45.480Z,57.40
2019-05-10T23:57:13.565Z,58.20
2019-05-10T23:59:41.445Z,58.60
